Terminal Aerodrome Forecast
Issued by NWS

Home | Current Version | Previous Version | Text Only | Print | Product List | Glossary On
Versions: 1 2 3 4 5 6 7 8 9 10 11 12 13 14 15 16 17 18 19 20 21 22 23 24 25 26 27 28
000
FTAK31 PANC 021741
TAFAIL
TAF
PAIL 021741Z 0218/0318 02008KT P6SM FEW050 OVC100
     FM022100 10012KT P6SM -RA SCT020 OVC040
     FM030900 09010G18KT P6SM -RA BKN025=

USA.gov is the U.S. government's official web portal to all federal, state and local government web resources and services.